Time;durP1;ratioP1;P1;durP2;ratioP2;P2;SDS_P1;SDS_P2;PMS_P1;PMS_P2;Temp;Humidity;BMP_temperature;BMP_pressure;BME280_temperature;BME280_humidity;BME280_pressure;Samples;Min_cycle;Max_cycle;Signal;HPM_P1;HPM_P2
2024/02/02 00:02:11;;;;;;;0.77;0.77;;;;;;;1.18;100.00;100881.16;5044150;28;20077;-59
2024/02/02 00:04:40;;;;;;;0.68;0.68;;;;;;;1.03;100.00;100878.13;5028435;28;20116;-59
2024/02/02 00:07:07;;;;;;;0.73;0.73;;;;;;;1.08;100.00;100867.97;5022240;28;20064;-59
2024/02/02 00:09:34;;;;;;;0.75;0.75;;;;;;;1.19;100.00;100870.44;5046186;28;20464;-59
2024/02/02 00:12:03;;;;;;;0.85;0.85;;;;;;;1.20;100.00;100863.34;5044595;28;20099;-59
2024/02/02 00:14:30;;;;;;;0.80;0.80;;;;;;;1.21;100.00;100859.75;5023398;28;20041;-59
2024/02/02 00:17:00;;;;;;;0.80;0.80;;;;;;;1.26;100.00;100870.72;5041662;28;20052;-59
2024/02/02 00:19:27;;;;;;;0.75;0.75;;;;;;;1.15;100.00;100876.16;5042731;28;20053;-59
2024/02/02 00:21:55;;;;;;;0.70;0.70;;;;;;;1.18;100.00;100881.16;5044995;28;20041;-59
2024/02/02 00:24:22;;;;;;;0.80;0.80;;;;;;;1.19;100.00;100874.91;5044365;28;20044;-59
2024/02/02 00:26:50;;;;;;;0.73;0.73;;;;;;;1.17;100.00;100874.19;5044502;28;20045;-59
2024/02/02 00:29:17;;;;;;;0.70;0.70;;;;;;;1.14;100.00;100858.66;5043787;28;20053;-59
2024/02/02 00:31:44;;;;;;;0.70;0.70;;;;;;;1.13;100.00;100857.00;5045207;28;20136;-59
2024/02/02 00:34:11;;;;;;;0.90;0.90;;;;;;;1.18;100.00;100870.59;5045244;28;20053;-59
2024/02/02 00:36:38;;;;;;;0.75;0.75;;;;;;;1.25;100.00;100883.09;5044862;28;20072;-59
2024/02/02 00:39:07;;;;;;;0.70;0.70;;;;;;;1.19;100.00;100870.44;5043477;28;20056;-59
2024/02/02 00:41:34;;;;;;;0.70;0.70;;;;;;;1.16;100.00;100867.25;5043321;28;20054;-59
2024/02/02 00:44:01;;;;;;;0.70;0.70;;;;;;;1.12;100.00;100858.78;5041780;28;20041;-59
2024/02/02 00:46:28;;;;;;;0.65;0.65;;;;;;;1.01;100.00;100859.78;5044723;28;20033;-59
2024/02/02 00:48:55;;;;;;;0.70;0.70;;;;;;;1.04;100.00;100862.13;5026892;28;20150;-60
2024/02/02 00:51:22;;;;;;;0.80;0.80;;;;;;;0.94;100.00;100860.47;5040447;28;20049;-59
2024/02/02 00:53:50;;;;;;;0.70;0.70;;;;;;;0.98;100.00;100860.06;5043448;28;20095;-59
2024/02/02 00:56:18;;;;;;;0.70;0.70;;;;;;;0.98;100.00;100877.72;5042143;28;20502;-59
2024/02/02 00:58:45;;;;;;;0.70;0.70;;;;;;;0.97;100.00;100884.78;5043994;28;20514;-59
2024/02/02 01:01:12;;;;;;;0.80;0.80;;;;;;;0.88;100.00;100875.06;5042186;28;20037;-60
2024/02/02 01:03:40;;;;;;;0.70;0.70;;;;;;;0.83;100.00;100882.56;5042399;28;20069;-59
2024/02/02 01:06:07;;;;;;;0.90;0.90;;;;;;;0.89;100.00;100879.38;5043134;28;20192;-59
2024/02/02 01:08:34;;;;;;;0.80;0.80;;;;;;;0.95;100.00;100878.81;5045810;28;20033;-59
2024/02/02 01:11:01;;;;;;;0.70;0.70;;;;;;;0.84;100.00;100873.66;5042266;28;20049;-59
2024/02/02 01:13:30;;;;;;;0.70;0.70;;;;;;;0.84;100.00;100871.03;5019269;28;20057;-59
2024/02/02 01:15:57;;;;;;;0.80;0.80;;;;;;;0.88;100.00;100861.03;5044007;28;20072;-59
2024/02/02 01:18:24;;;;;;;0.63;0.63;;;;;;;0.87;100.00;100865.47;5043612;28;20890;-59
2024/02/02 01:20:52;;;;;;;0.77;0.77;;;;;;;0.96;100.00;100869.91;5042348;28;20049;-59
2024/02/02 01:23:19;;;;;;;0.80;0.80;;;;;;;1.00;100.00;100855.47;5043636;28;20051;-59
2024/02/02 01:25:46;;;;;;;0.73;0.73;;;;;;;1.05;100.00;100857.69;5047106;28;20044;-59
2024/02/02 01:28:13;;;;;;;0.77;0.77;;;;;;;1.14;100.00;100853.38;5042501;28;20456;-59
2024/02/02 01:30:42;;;;;;;0.63;0.63;;;;;;;1.16;100.00;100854.06;5022495;28;20122;-59
2024/02/02 01:33:09;;;;;;;0.75;0.75;;;;;;;1.12;100.00;100850.03;5040613;28;20144;-59
2024/02/02 01:35:36;;;;;;;0.80;0.80;;;;;;;1.26;100.00;100841.66;5043048;28;20045;-59
2024/02/02 01:38:04;;;;;;;0.60;0.60;;;;;;;1.26;100.00;100836.38;5041087;28;20053;-59
2024/02/02 01:40:31;;;;;;;0.60;0.60;;;;;;;1.45;100.00;100849.56;5026890;28;20048;-59
2024/02/02 01:42:58;;;;;;;0.90;0.90;;;;;;;1.44;100.00;100850.50;5041468;28;20045;-59
2024/02/02 01:45:25;;;;;;;0.60;0.60;;;;;;;1.31;100.00;100834.16;5042120;28;20053;-59
2024/02/02 01:47:54;;;;;;;0.70;0.70;;;;;;;1.35;100.00;100835.53;5042932;28;20446;-59
2024/02/02 01:50:21;;;;;;;0.50;0.50;;;;;;;1.39;100.00;100828.97;5040185;28;20041;-59
2024/02/02 01:52:48;;;;;;;0.63;0.63;;;;;;;1.42;100.00;100825.19;5039173;28;20044;-59
2024/02/02 01:55:15;;;;;;;0.60;0.60;;;;;;;1.34;100.00;100818.00;5042114;28;20041;-59
2024/02/02 01:57:42;;;;;;;0.60;0.60;;;;;;;1.33;100.00;100820.81;5034132;28;20037;-59
2024/02/02 02:00:11;;;;;;;0.68;0.68;;;;;;;1.46;100.00;100824.78;5041863;28;20190;-59
2024/02/02 02:02:38;;;;;;;0.80;0.80;;;;;;;1.54;100.00;100823.22;5045013;28;20064;-59
2024/02/02 02:05:07;;;;;;;0.63;0.63;;;;;;;1.50;100.00;100809.47;5041616;28;20083;-59
2024/02/02 02:07:34;;;;;;;0.68;0.68;;;;;;;1.46;100.00;100793.06;5021557;28;20432;-59
2024/02/02 02:10:03;;;;;;;0.70;0.70;;;;;;;1.43;100.00;100781.97;5041783;28;20052;-59
2024/02/02 02:12:30;;;;;;;0.60;0.60;;;;;;;1.33;100.00;100784.66;5040260;28;20094;-59
2024/02/02 02:14:57;;;;;;;0.77;0.77;;;;;;;1.31;100.00;100785.75;5041654;28;20404;-59
2024/02/02 02:17:24;;;;;;;0.80;0.80;;;;;;;1.36;100.00;100787.00;5039178;28;20442;-59
2024/02/02 02:19:51;;;;;;;0.80;0.80;;;;;;;1.41;100.00;100797.97;5041557;28;20056;-59
2024/02/02 02:22:20;;;;;;;0.57;0.57;;;;;;;1.42;100.00;100802.28;5042087;28;20059;-59
2024/02/02 02:24:47;;;;;;;0.80;0.80;;;;;;;1.28;100.00;100802.72;5042707;28;20045;-59
2024/02/02 02:27:14;;;;;;;0.70;0.70;;;;;;;1.31;100.00;100806.91;5016980;28;20052;-59
2024/02/02 02:29:41;;;;;;;0.80;0.80;;;;;;;1.36;100.00;100805.47;5042383;28;20048;-59
2024/02/02 02:32:08;;;;;;;0.70;0.70;;;;;;;1.45;100.00;100801.97;5041683;28;20059;-59
2024/02/02 02:34:36;;;;;;;0.60;0.60;;;;;;;1.42;100.00;100809.34;5042755;28;20798;-59
2024/02/02 02:37:03;;;;;;;0.60;0.60;;;;;;;1.36;100.00;100805.47;5040459;28;20045;-59
2024/02/02 02:39:31;;;;;;;0.70;0.70;;;;;;;1.37;100.00;100801.84;5024316;28;20057;-59
2024/02/02 02:42:00;;;;;;;0.60;0.60;;;;;;;1.36;100.00;100802.84;5041981;28;20041;-59
2024/02/02 02:44:27;;;;;;;0.63;0.63;;;;;;;1.34;100.00;100796.03;5037397;28;20122;-59
2024/02/02 02:46:54;;;;;;;0.70;0.70;;;;;;;1.31;100.00;100796.34;5039694;28;20049;-59
2024/02/02 02:49:21;;;;;;;0.70;0.70;;;;;;;1.30;100.00;100795.50;5041600;28;20060;-59
2024/02/02 02:51:48;;;;;;;0.70;0.70;;;;;;;1.21;100.00;100785.78;5041112;28;20479;-59
2024/02/02 02:54:15;;;;;;;0.73;0.73;;;;;;;1.25;100.00;100785.38;5044736;28;20640;-59
2024/02/02 02:56:44;;;;;;;0.80;0.80;;;;;;;1.30;100.00;100790.22;5049408;28;20491;-59
2024/02/02 02:59:11;;;;;;;0.70;0.70;;;;;;;1.31;100.00;100785.75;5046083;28;20056;-59
2024/02/02 03:01:38;;;;;;;0.70;0.70;;;;;;;1.24;100.00;100769.66;5046010;28;20056;-59
2024/02/02 03:04:05;;;;;;;0.73;0.73;;;;;;;1.22;100.00;100772.44;5045683;28;20059;-59
2024/02/02 03:06:32;;;;;;;0.60;0.60;;;;;;;1.34;100.00;100780.19;5046508;28;20068;-59
2024/02/02 03:09:01;;;;;;;0.60;0.60;;;;;;;1.26;100.00;100781.72;5044679;28;20065;-59
2024/02/02 03:11:28;;;;;;;0.60;0.60;;;;;;;1.30;100.00;100774.38;5041030;28;20072;-59
2024/02/02 03:13:57;;;;;;;0.68;0.68;;;;;;;1.26;100.00;100778.28;5027571;28;20063;-59
2024/02/02 03:16:24;;;;;;;0.65;0.65;;;;;;;1.26;100.00;100773.00;5044933;28;20122;-59
2024/02/02 03:18:51;;;;;;;0.80;0.80;;;;;;;1.17;100.00;100774.66;5045350;28;20046;-59
2024/02/02 03:21:18;;;;;;;0.70;0.70;;;;;;;1.16;100.00;100773.00;5045468;28;20499;-59
2024/02/02 03:23:46;;;;;;;0.70;0.70;;;;;;;1.31;100.00;100776.03;5044823;28;20454;-59
2024/02/02 03:26:13;;;;;;;0.88;0.88;;;;;;;1.25;100.00;100766.88;5045938;28;20045;-59
2024/02/02 03:28:40;;;;;;;0.80;0.80;;;;;;;1.21;100.00;100765.50;5045040;28;20480;-59
2024/02/02 03:31:08;;;;;;;0.70;0.70;;;;;;;1.19;100.00;100766.59;5044687;28;20068;-59
2024/02/02 03:33:35;;;;;;;0.80;0.80;;;;;;;1.17;100.00;100758.00;5022806;28;20404;-59
2024/02/02 03:36:02;;;;;;;0.70;0.70;;;;;;;1.20;100.00;100758.56;5042134;28;20052;-59
2024/02/02 03:38:29;;;;;;;0.80;0.80;;;;;;;1.13;100.00;100749.53;5048162;28;20068;-59
2024/02/02 03:40:56;;;;;;;0.80;0.80;;;;;;;1.07;100.00;100748.31;5028525;28;20455;-59
2024/02/02 03:43:23;;;;;;;0.73;0.73;;;;;;;1.05;100.00;100755.53;5044525;28;20391;-59
2024/02/02 03:45:50;;;;;;;0.80;0.80;;;;;;;1.04;100.00;100756.50;5039930;28;20561;-59
2024/02/02 03:48:19;;;;;;;0.70;0.70;;;;;;;1.05;100.00;100755.53;5022688;28;20536;-59
2024/02/02 03:50:46;;;;;;;0.77;0.77;;;;;;;1.02;100.00;100755.84;5024327;28;20041;-59
2024/02/02 03:53:13;;;;;;;0.68;0.68;;;;;;;1.08;100.00;100760.53;5042194;28;20040;-59
2024/02/02 03:55:40;;;;;;;0.70;0.70;;;;;;;1.08;100.00;100765.81;5043057;28;20083;-59
2024/02/02 03:58:07;;;;;;;0.70;0.70;;;;;;;1.18;100.00;100780.81;5044130;28;20045;-59
2024/02/02 04:00:34;;;;;;;0.77;0.77;;;;;;;1.24;100.00;100786.31;5040461;28;20160;-59
2024/02/02 04:03:01;;;;;;;0.82;0.82;;;;;;;1.28;100.00;100786.88;5047320;28;20057;-59
2024/02/02 04:05:30;;;;;;;0.65;0.65;;;;;;;1.35;100.00;100793.25;5043268;28;20385;-59
2024/02/02 04:07:57;;;;;;;0.80;0.80;;;;;;;1.34;100.00;100781.00;5045191;28;20073;-59
2024/02/02 04:10:24;;;;;;;0.70;0.70;;;;;;;1.40;100.00;100784.88;5026748;28;20572;-59
2024/02/02 04:12:51;;;;;;;0.70;0.70;;;;;;;1.47;100.00;100784.19;5045680;28;20052;-59
2024/02/02 04:15:18;;;;;;;0.70;0.70;;;;;;;1.49;100.00;100792.78;5045318;28;20048;-59
2024/02/02 04:17:45;;;;;;;0.63;0.63;;;;;;;1.53;100.00;100789.88;5023036;28;20076;-59
2024/02/02 04:20:12;;;;;;;0.60;0.60;;;;;;;1.37;100.00;100793.94;5022348;28;20045;-59
2024/02/02 04:22:40;;;;;;;0.70;0.70;;;;;;;1.38;100.00;100798.25;5024959;28;20611;-59
2024/02/02 04:25:08;;;;;;;0.70;0.70;;;;;;;1.43;100.00;100790.72;5044365;28;20065;-59
2024/02/02 04:27:35;;;;;;;0.60;0.60;;;;;;;1.44;100.00;100800.31;5039354;28;20110;-59
2024/02/02 04:30:03;;;;;;;0.70;0.70;;;;;;;1.53;100.00;100805.72;5043904;28;20547;-59
2024/02/02 04:32:32;;;;;;;0.70;0.70;;;;;;;1.52;100.00;100810.16;5021515;28;20041;-59
2024/02/02 04:34:59;;;;;;;0.70;0.70;;;;;;;1.56;100.00;100821.28;5041174;28;20116;-59
2024/02/02 04:37:26;;;;;;;0.70;0.70;;;;;;;1.56;100.00;100816.00;5044076;28;20047;-59
2024/02/02 04:39:55;;;;;;;0.70;0.70;;;;;;;1.55;100.00;100814.31;5044648;28;20052;-59
2024/02/02 04:42:24;;;;;;;0.70;0.70;;;;;;;1.57;100.00;100807.06;5041847;28;20052;-59
2024/02/02 04:44:51;;;;;;;0.70;0.70;;;;;;;1.59;100.00;100799.84;5043946;28;20045;-58
2024/02/02 04:47:18;;;;;;;0.77;0.77;;;;;;;1.70;100.00;100812.88;5041745;28;20468;-58
2024/02/02 04:49:46;;;;;;;0.60;0.60;;;;;;;1.76;100.00;100808.81;5025571;28;20041;-58
2024/02/02 04:52:13;;;;;;;0.50;0.50;;;;;;;1.76;100.00;100803.53;5042311;28;20044;-59
2024/02/02 04:54:40;;;;;;;0.60;0.60;;;;;;;1.77;100.00;100795.44;5027018;28;20056;-58
2024/02/02 04:57:09;;;;;;;0.60;0.60;;;;;;;1.80;100.00;100794.31;5042752;28;20080;-58
2024/02/02 04:59:37;;;;;;;0.55;0.55;;;;;;;1.83;100.00;100799.31;5042032;28;20045;-58
2024/02/02 05:02:04;;;;;;;0.70;0.70;;;;;;;1.85;100.00;100800.00;5021597;28;20130;-59
2024/02/02 05:04:33;;;;;;;0.60;0.60;;;;;;;1.91;100.00;100799.41;5039688;28;20041;-59
2024/02/02 05:07:00;;;;;;;0.60;0.60;;;;;;;1.87;100.00;100798.88;5024730;28;20562;-62
2024/02/02 05:09:28;;;;;;;0.70;0.70;;;;;;;1.93;100.00;100798.28;5042806;28;20308;-58
2024/02/02 05:11:55;;;;;;;0.60;0.60;;;;;;;1.98;100.00;100786.44;5043496;28;20818;-58
2024/02/02 05:14:24;;;;;;;0.70;0.70;;;;;;;1.93;100.00;100793.00;5041982;28;20051;-59
2024/02/02 05:16:51;;;;;;;0.70;0.70;;;;;;;1.97;100.00;100787.41;5044681;28;20060;-58
2024/02/02 05:19:18;;;;;;;0.63;0.63;;;;;;;2.01;100.00;100792.25;5041086;28;20569;-59
2024/02/02 05:21:45;;;;;;;0.80;0.80;;;;;;;2.04;100.00;100786.66;5043310;28;20067;-59
2024/02/02 05:24:12;;;;;;;0.60;0.60;;;;;;;2.01;100.00;100786.97;5042618;28;20488;-58
2024/02/02 05:26:39;;;;;;;0.60;0.60;;;;;;;2.01;100.00;100800.19;5043602;28;20040;-59
2024/02/02 05:29:06;;;;;;;0.65;0.65;;;;;;;2.07;100.00;100799.59;5041255;28;20668;-59
2024/02/02 05:31:35;;;;;;;0.70;0.70;;;;;;;2.05;100.00;100795.44;5043977;28;20087;-58
2024/02/02 05:34:02;;;;;;;0.70;0.70;;;;;;;1.99;100.00;100785.44;5041212;28;20057;-59
2024/02/02 05:36:29;;;;;;;0.60;0.60;;;;;;;1.97;100.00;100798.81;5042216;28;20443;-59
2024/02/02 05:38:56;;;;;;;0.60;0.60;;;;;;;2.02;100.00;100795.72;5039576;28;20698;-58
2024/02/02 05:41:24;;;;;;;0.60;0.60;;;;;;;1.99;100.00;100796.03;5042401;28;20044;-58
2024/02/02 05:43:51;;;;;;;0.70;0.70;;;;;;;1.93;100.00;100795.63;5040885;28;20462;-59
2024/02/02 05:46:18;;;;;;;0.70;0.70;;;;;;;1.94;100.00;100789.34;5040531;28;20064;-58
2024/02/02 05:48:47;;;;;;;0.70;0.70;;;;;;;1.92;100.00;100790.47;5039539;28;20630;-59
2024/02/02 05:51:14;;;;;;;0.70;0.70;;;;;;;1.87;100.00;100788.31;5037659;28;20582;-58
2024/02/02 05:53:41;;;;;;;0.70;0.70;;;;;;;1.90;100.00;100787.19;5032069;28;20044;-58
2024/02/02 05:56:08;;;;;;;0.50;0.50;;;;;;;1.89;100.00;100781.03;5039393;28;20052;-59
2024/02/02 05:58:35;;;;;;;0.65;0.65;;;;;;;1.87;100.00;100776.88;5038403;28;20414;-59
2024/02/02 06:01:02;;;;;;;0.60;0.60;;;;;;;1.87;100.00;100785.66;5041634;28;20042;-58
2024/02/02 06:03:29;;;;;;;0.60;0.60;;;;;;;1.83;100.00;100791.38;5023909;28;20095;-58
2024/02/02 06:05:58;;;;;;;0.70;0.70;;;;;;;1.89;100.00;100785.50;5044447;28;20048;-58
2024/02/02 06:08:25;;;;;;;0.70;0.70;;;;;;;1.84;100.00;100779.81;5041282;28;20099;-58
2024/02/02 06:10:52;;;;;;;0.60;0.60;;;;;;;1.85;100.00;100779.69;5042704;28;20418;-58
2024/02/02 06:13:19;;;;;;;0.60;0.60;;;;;;;1.86;100.00;100776.03;5043682;28;20091;-58
2024/02/02 06:15:47;;;;;;;0.60;0.60;;;;;;;1.89;100.00;100765.16;5037265;28;20047;-58
2024/02/02 06:18:16;;;;;;;0.70;0.70;;;;;;;1.83;100.00;100754.38;5040203;28;20059;-58
2024/02/02 06:20:43;;;;;;;0.70;0.70;;;;;;;1.79;100.00;100758.28;5040412;28;20052;-58
2024/02/02 06:23:12;;;;;;;0.80;0.80;;;;;;;1.87;100.00;100751.28;5038591;28;20126;-60
2024/02/02 06:25:43;;;;;;;0.60;0.60;;;;;;;1.86;100.00;100746.97;5043106;28;20044;-59
2024/02/02 06:28:10;;;;;;;0.60;0.60;;;;;;;1.79;100.00;100739.78;5037913;28;20049;-59
2024/02/02 06:30:39;;;;;;;0.70;0.70;;;;;;;1.84;100.00;100745.44;5041527;28;20037;-59
2024/02/02 06:33:06;;;;;;;0.70;0.70;;;;;;;1.82;100.00;100753.53;5042636;28;20395;-57
2024/02/02 06:35:33;;;;;;;0.70;0.70;;;;;;;1.76;100.00;100748.84;5034751;28;20049;-57
2024/02/02 06:38:00;;;;;;;0.60;0.60;;;;;;;1.76;100.00;100746.19;5042744;28;20522;-57
2024/02/02 06:40:29;;;;;;;0.73;0.73;;;;;;;1.81;100.00;100741.28;5023020;28;20525;-58
2024/02/02 06:42:56;;;;;;;0.80;0.80;;;;;;;1.73;100.00;100738.56;5020670;28;20134;-58
2024/02/02 06:45:23;;;;;;;0.70;0.70;;;;;;;1.87;100.00;100734.56;5040981;28;20799;-58
2024/02/02 06:47:50;;;;;;;0.60;0.60;;;;;;;1.86;100.00;100733.75;5042984;28;20053;-57
2024/02/02 06:50:17;;;;;;;0.60;0.60;;;;;;;1.94;100.00;100735.63;5041953;28;20396;-59
2024/02/02 06:52:44;;;;;;;0.60;0.60;;;;;;;1.95;100.00;100737.31;5041375;28;20507;-58
2024/02/02 06:55:12;;;;;;;0.68;0.68;;;;;;;2.02;100.00;100743.69;5041449;28;20068;-58
2024/02/02 06:57:41;;;;;;;0.60;0.60;;;;;;;1.98;100.00;100739.66;5041020;28;20114;-59
2024/02/02 07:00:11;;;;;;;0.70;0.70;;;;;;;1.98;100.00;100742.31;5042440;28;20114;-58
2024/02/02 07:02:38;;;;;;;0.70;0.70;;;;;;;2.02;100.00;100742.81;5023004;28;20130;-59
2024/02/02 07:05:06;;;;;;;0.60;0.60;;;;;;;2.03;100.00;100733.94;5042178;28;20069;-58
2024/02/02 07:07:33;;;;;;;0.70;0.70;;;;;;;2.01;100.00;100726.13;5040308;28;20077;-58
2024/02/02 07:10:00;;;;;;;0.68;0.68;;;;;;;2.00;100.00;100723.63;5042092;28;20049;-59
2024/02/02 07:12:55;;;;;;;0.55;0.55;;;;;;;2.03;100.00;100718.88;5038698;28;20049;-58
2024/02/02 07:15:22;;;;;;;0.70;0.70;;;;;;;2.07;100.00;100709.69;5041804;28;20071;-59
2024/02/02 07:17:49;;;;;;;0.50;0.50;;;;;;;2.09;100.00;100706.84;5036600;28;20045;-59
2024/02/02 07:20:48;;;;;;;0.60;0.60;;;;;;;2.09;100.00;100717.44;5040692;28;20106;-59
2024/02/02 07:23:15;;;;;;;0.63;0.63;;;;;;;2.03;100.00;100718.06;5035385;28;20131;-59
2024/02/02 07:25:42;;;;;;;0.60;0.60;;;;;;;2.03;100.00;100718.06;5025048;28;20045;-59
2024/02/02 07:28:26;;;;;;;0.60;0.60;;;;;;;2.02;100.00;100716.38;5038957;28;20045;-59
2024/02/02 07:30:54;;;;;;;0.43;0.43;;;;;;;2.13;100.00;100719.63;5038105;28;20041;-58
2024/02/02 07:33:26;;;;;;;0.70;0.70;;;;;;;2.05;100.00;100716.09;5034269;28;20442;-58
2024/02/02 07:35:55;;;;;;;0.70;0.70;;;;;;;2.03;100.00;100726.81;5042366;28;20647;-59
2024/02/02 07:38:34;;;;;;;0.63;0.63;;;;;;;2.09;100.00;100728.84;5022241;28;20088;-59
2024/02/02 07:41:05;;;;;;;0.70;0.70;;;;;;;2.15;100.00;100735.38;5022051;28;20048;-58
2024/02/02 07:43:33;;;;;;;0.60;0.60;;;;;;;2.11;100.00;100736.63;5020262;28;20136;-58
2024/02/02 07:46:01;;;;;;;0.55;0.55;;;;;;;2.14;100.00;100733.69;4992930;28;20074;-58
2024/02/02 07:48:28;;;;;;;0.57;0.57;;;;;;;2.11;100.00;100736.63;4999519;28;20158;-58
2024/02/02 07:50:55;;;;;;;0.70;0.70;;;;;;;2.23;100.00;100731.97;5013492;28;20594;-58
2024/02/02 07:53:23;;;;;;;0.60;0.60;;;;;;;2.21;100.00;100733.94;4998157;28;20149;-58
2024/02/02 07:55:50;;;;;;;0.68;0.68;;;;;;;2.29;100.00;100742.75;5002667;28;20492;-58
2024/02/02 07:58:20;;;;;;;0.65;0.65;;;;;;;2.38;100.00;100736.56;5001674;28;20041;-59
2024/02/02 08:00:48;;;;;;;0.63;0.63;;;;;;;2.38;100.00;100741.03;4998139;28;20046;-58
2024/02/02 08:03:16;;;;;;;0.70;0.70;;;;;;;2.52;100.00;100737.00;5001861;28;20594;-59
2024/02/02 08:05:43;;;;;;;0.57;0.57;;;;;;;2.51;100.00;100733.53;5005802;28;20041;-58
2024/02/02 08:08:10;;;;;;;0.70;0.70;;;;;;;2.62;100.00;100735.13;5006503;28;20058;-58
2024/02/02 08:10:41;;;;;;;0.68;0.68;;;;;;;2.56;100.00;100725.13;5001315;28;20053;-58
2024/02/02 08:13:09;;;;;;;0.80;0.80;;;;;;;2.71;100.00;100723.56;4999072;28;20115;-59
2024/02/02 08:15:37;;;;;;;0.60;0.60;;;;;;;2.84;100.00;100717.88;5001300;28;20559;-59
2024/02/02 08:18:06;;;;;;;0.70;0.70;;;;;;;2.73;100.00;100720.78;5008876;28;20227;-58
2024/02/02 08:20:33;;;;;;;0.60;0.60;;;;;;;2.86;100.00;100725.66;5001630;28;20145;-59
2024/02/02 08:23:00;;;;;;;0.55;0.55;;;;;;;3.02;100.00;100726.59;5003398;28;20057;-59
2024/02/02 08:25:28;;;;;;;0.50;0.50;;;;;;;3.05;100.00;100729.94;5000770;28;20092;-59
2024/02/02 08:27:56;;;;;;;0.60;0.60;;;;;;;3.26;100.00;100716.28;5001548;28;20045;-59
2024/02/02 08:30:24;;;;;;;0.52;0.52;;;;;;;3.36;100.00;100706.41;4997716;28;20613;-59
2024/02/02 08:32:52;;;;;;;0.50;0.50;;;;;;;3.41;100.00;100720.00;5002628;28;20068;-60
2024/02/02 08:35:23;;;;;;;0.52;0.52;;;;;;;3.48;100.00;100728.16;5002472;28;20575;-60
2024/02/02 08:37:52;;;;;;;0.60;0.60;;;;;;;3.14;100.00;100734.28;5001928;28;20057;-61
2024/02/02 08:40:27;;;;;;;0.60;0.60;;;;;;;3.30;100.00;100720.31;4997045;28;20047;-59
2024/02/02 08:42:54;;;;;;;0.60;0.60;;;;;;;3.34;100.00;100718.97;5000755;28;20405;-60
2024/02/02 08:45:58;;;;;;;0.70;0.70;;;;;;;3.39;100.00;100712.19;5000807;28;20048;-58
2024/02/02 08:48:33;;;;;;;0.77;0.77;;;;;;;5.19;100.00;100699.03;5000192;28;20499;-58
2024/02/02 08:51:01;;;;;;;0.70;0.70;;;;;;;5.53;100.00;100699.72;4995486;28;20073;-58
2024/02/02 08:53:27;;;;;;;0.60;0.60;;;;;;;5.69;100.00;100694.31;4999983;28;20044;-58
2024/02/02 08:55:56;;;;;;;0.50;0.50;;;;;;;5.86;100.00;100694.22;5003207;28;20085;-58
2024/02/02 08:58:27;;;;;;;0.50;0.50;;;;;;;6.08;98.76;100698.75;4999698;28;20107;-59
2024/02/02 09:00:54;;;;;;;0.50;0.50;;;;;;;5.80;98.41;100715.19;4999083;28;20061;-58
2024/02/02 09:03:34;;;;;;;0.40;0.40;;;;;;;6.65;98.41;100708.94;5001894;28;20058;-59
2024/02/02 09:06:04;;;;;;;0.60;0.60;;;;;;;5.86;96.61;100711.00;4998045;28;20050;-58
2024/02/02 09:08:34;;;;;;;0.52;0.52;;;;;;;6.22;98.81;100702.50;4999935;28;20718;-59
2024/02/02 09:11:18;;;;;;;0.60;0.60;;;;;;;6.28;97.52;100706.28;5003387;28;20060;-59
2024/02/02 09:13:45;;;;;;;0.50;0.50;;;;;;;5.75;100.00;100698.94;4999040;28;20053;-59
2024/02/02 09:16:13;;;;;;;0.50;0.50;;;;;;;5.96;98.69;100698.31;5003324;28;20046;-59
2024/02/02 09:18:41;;;;;;;0.50;0.50;;;;;;;5.66;99.33;100691.16;5011299;28;20527;-60
2024/02/02 09:21:10;;;;;;;0.40;0.40;;;;;;;5.79;100.00;100700.25;5001625;28;20044;-59
2024/02/02 09:23:39;;;;;;;0.50;0.50;;;;;;;5.62;100.00;100711.97;4997207;28;20100;-59
2024/02/02 09:26:11;;;;;;;0.50;0.50;;;;;;;5.93;100.00;100708.47;5002236;28;20045;-61
2024/02/02 09:28:40;;;;;;;0.50;0.50;;;;;;;5.99;98.50;100713.97;4999815;28;20045;-59
2024/02/02 09:31:07;;;;;;;0.50;0.50;;;;;;;5.76;100.00;100705.91;5002316;28;20053;-59
2024/02/02 09:33:45;;;;;;;0.50;0.50;;;;;;;6.07;98.25;100702.44;5000930;28;20045;-59
2024/02/02 09:36:13;;;;;;;0.50;0.50;;;;;;;6.06;97.83;100706.09;5003374;28;20053;-59
2024/02/02 09:38:40;;;;;;;0.38;0.38;;;;;;;6.16;97.02;100706.69;5001336;28;20069;-59
2024/02/02 09:41:42;;;;;;;0.40;0.40;;;;;;;5.95;96.81;100701.19;5017461;28;20046;-59
2024/02/02 09:44:27;;;;;;;0.50;0.50;;;;;;;6.00;97.19;100704.13;4998188;28;20088;-59
2024/02/02 09:46:59;;;;;;;0.50;0.50;;;;;;;6.79;94.73;100701.16;4991361;28;20053;-59
2024/02/02 09:49:30;;;;;;;0.50;0.50;;;;;;;6.76;92.87;100688.19;5002439;28;20589;-59
2024/02/02 09:52:07;;;;;;;0.40;0.40;;;;;;;6.79;92.87;100694.00;4993037;28;20049;-59
2024/02/02 09:54:36;;;;;;;0.40;0.40;;;;;;;6.60;93.37;100700.66;5002008;28;20072;-59
2024/02/02 09:57:08;;;;;;;0.40;0.40;;;;;;;6.64;92.66;100693.97;5005102;28;20080;-59
2024/02/02 09:59:44;;;;;;;0.30;0.30;;;;;;;6.15;96.40;100698.88;5003991;28;20447;-59
2024/02/02 10:02:24;;;;;;;0.40;0.40;;;;;;;6.82;92.09;100703.47;4996667;28;20447;-59
2024/02/02 10:04:57;;;;;;;0.40;0.40;;;;;;;6.51;92.14;100703.59;4997735;28;20046;-59
2024/02/02 10:07:32;;;;;;;0.50;0.50;;;;;;;6.33;94.05;100702.06;5003218;28;20046;-59
2024/02/02 10:10:18;;;;;;;0.40;0.40;;;;;;;6.36;93.51;100699.03;4999256;28;20500;-59
2024/02/02 10:12:49;;;;;;;0.47;0.47;;;;;;;6.36;94.38;100701.69;5001138;28;20073;-59
2024/02/02 10:15:46;;;;;;;0.30;0.30;;;;;;;6.23;95.71;100694.31;4998741;28;20045;-58
2024/02/02 10:18:29;;;;;;;0.40;0.40;;;;;;;6.25;94.11;100689.66;4969564;28;20145;-58
2024/02/02 10:20:59;;;;;;;0.43;0.43;;;;;;;6.24;96.31;100684.47;5002639;28;20054;-58
2024/02/02 10:23:55;;;;;;;0.47;0.47;;;;;;;6.16;95.41;100681.91;5000520;28;20041;-59
2024/02/02 10:26:34;;;;;;;0.43;0.43;;;;;;;5.97;95.14;100694.69;4999515;28;20097;-59
2024/02/02 10:29:08;;;;;;;0.50;0.50;;;;;;;6.27;96.49;100684.16;4997340;28;20077;-58
2024/02/02 10:31:43;;;;;;;0.50;0.50;;;;;;;6.60;94.52;100684.69;4999787;28;20571;-59
2024/02/02 10:34:25;;;;;;;0.47;0.47;;;;;;;6.43;94.71;100693.84;4997763;28;20432;-58
2024/02/02 10:37:00;;;;;;;0.50;0.50;;;;;;;6.22;95.85;100695.34;4999428;28;20045;-58
2024/02/02 10:39:36;;;;;;;0.40;0.40;;;;;;;6.40;95.19;100696.84;5001197;28;20046;-59
2024/02/02 10:42:12;;;;;;;0.50;0.50;;;;;;;6.23;94.58;100688.97;5001623;28;20390;-60
2024/02/02 10:44:46;;;;;;;0.50;0.50;;;;;;;6.62;92.48;100682.69;5000797;28;20046;-58
2024/02/02 10:47:20;;;;;;;0.40;0.40;;;;;;;6.34;92.74;100678.91;5030166;28;20049;-58
2024/02/02 10:49:51;;;;;;;0.50;0.50;;;;;;;6.47;91.73;100689.81;5040687;28;20075;-58
2024/02/02 10:52:27;;;;;;;0.40;0.40;;;;;;;6.64;91.64;100675.34;5022202;28;20527;-58
2024/02/02 10:55:25;;;;;;;0.40;0.40;;;;;;;6.43;92.39;100681.34;5012544;28;20052;-58
2024/02/02 10:57:56;;;;;;;0.50;0.50;;;;;;;6.35;92.85;100670.75;5039767;28;20122;-59
2024/02/02 11:00:23;;;;;;;0.40;0.40;;;;;;;6.21;93.01;100677.69;5040747;28;20425;-59
2024/02/02 11:02:59;;;;;;;0.30;0.30;;;;;;;6.36;92.83;100663.59;5041948;28;20053;-59
2024/02/02 11:05:31;;;;;;;0.43;0.43;;;;;;;6.63;90.51;100673.66;5042102;28;20046;-59
2024/02/02 11:08:01;;;;;;;0.40;0.40;;;;;;;6.76;89.63;100674.88;5041322;28;20041;-59
2024/02/02 11:10:33;;;;;;;0.50;0.50;;;;;;;6.93;88.43;100665.69;5023292;28;20400;-59
2024/02/02 11:13:07;;;;;;;0.30;0.30;;;;;;;6.85;88.74;100663.13;5040322;28;20053;-59
2024/02/02 11:15:44;;;;;;;0.40;0.40;;;;;;;6.61;88.26;100658.88;5025314;28;20504;-59
2024/02/02 11:18:20;;;;;;;0.40;0.40;;;;;;;6.99;87.59;100654.31;5044192;28;20103;-58
2024/02/02 11:20:50;;;;;;;0.45;0.45;;;;;;;6.97;86.61;100648.34;5022399;28;20571;-60
2024/02/02 11:23:20;;;;;;;0.35;0.35;;;;;;;6.82;88.09;100643.00;5043704;28;20654;-60
2024/02/02 11:25:51;;;;;;;0.40;0.40;;;;;;;7.01;86.66;100641.59;5041604;28;20118;-59
2024/02/02 11:28:22;;;;;;;0.30;0.30;;;;;;;7.06;85.45;100636.59;5044183;28;20450;-59
2024/02/02 11:30:52;;;;;;;;;;;;;;;7.37;84.33;100643.53;5042944;28;20072;-58
2024/02/02 11:33:37;;;;;;;0.35;0.35;;;;;;;7.06;84.65;100625.91;5043751;28;19924;-58
2024/02/02 11:36:10;;;;;;;0.30;0.30;;;;;;;7.16;83.96;100627.44;5048820;28;20041;-58
2024/02/02 11:38:43;;;;;;;0.40;0.40;;;;;;;7.48;82.65;100621.69;5024214;28;20042;-59